2005 DELTA (2005324N27312)


On this page: IBTrACS data - Map and Plots - Positions - Intensities - Original source data

Summary

Start Nov 19
End Nov 29
Basin NA
LMI 60 kt
Sources hurdat_atl
atcf
In WMO? Yes
Previous storm 2005 MISSING (NI)
Previous in basin 2005 GAMMA (NA)
Concurrent storms 2005 BOLAVEN (WP)
2005 GAMMA (NA)
2006 ALVIN (SI)
2005 MISSING (NI)
2005 DELTA (NA)
2005 BAAZ (NI)
2005 EPSILON (NA)
Next in basin 2005 EPSILON (NA)
Next storm 2005 BAAZ (NI)

top of page IBTrACS Data: File Access

top of page HURSAT Data: File Access

Image of storm

top of page Plots:

Map of storm track will not appear if FTP is down
Time series of cyclone Maximum Sustained Wind will not appear if FTP is down
Time series of cyclone Minimum Central Pressure will not appear if FTP is down

top of page Track Data:Position

hurdat_atl atcf
Date Lat Lon Lat Lon
2005-11-19 12:00:00 27.0 -48.0 27.0 -48.0
2005-11-19 18:00:00 26.7 -47.5 26.7 -47.5
2005-11-20 00:00:00 26.7 -46.7 26.7 -46.7
2005-11-20 06:00:00 27.2 -45.9 27.2 -45.9
2005-11-20 12:00:00 27.7 -44.8 27.7 -44.8
2005-11-20 18:00:00 28.0 -43.5 28.0 -43.5
2005-11-21 00:00:00 28.3 -42.2 28.3 -42.2
2005-11-21 06:00:00 29.0 -41.1 29.0 -41.1
2005-11-21 12:00:00 29.9 -40.1 29.9 -40.1
2005-11-21 18:00:00 30.9 -39.6 30.9 -39.6
2005-11-22 00:00:00 31.5 -40.1 31.5 -40.1
2005-11-22 06:00:00 31.4 -39.9 31.4 -39.9
2005-11-22 12:00:00 31.2 -39.8 31.2 -39.8
2005-11-22 18:00:00 30.7 -40.5 30.7 -40.5
2005-11-23 00:00:00 29.9 -40.9 29.9 -40.9
2005-11-23 06:00:00 28.8 -41.3 28.8 -41.3
2005-11-23 12:00:00 27.4 -41.2 27.4 -41.2
2005-11-23 18:00:00 26.4 -40.8 26.4 -40.8
2005-11-24 00:00:00 25.5 -40.2 25.5 -40.2
2005-11-24 06:00:00 25.0 -39.6 25.0 -39.6
2005-11-24 12:00:00 24.8 -39.0 24.8 -39.0
2005-11-24 18:00:00 24.6 -38.9 24.6 -38.9
2005-11-25 00:00:00 24.1 -39.0 24.1 -39.0
2005-11-25 06:00:00 23.8 -39.3 23.8 -39.3
2005-11-25 12:00:00 23.3 -39.6 23.3 -39.6
hurdat_atl atcf
2005-11-25 18:00:00 22.8 -39.8 22.8 -39.8
2005-11-26 00:00:00 22.3 -39.8 22.3 -39.8
2005-11-26 06:00:00 21.8 -39.4 21.8 -39.4
2005-11-26 12:00:00 22.0 -38.4 22.0 -38.4
2005-11-26 18:00:00 22.6 -37.3 22.6 -37.3
2005-11-27 00:00:00 23.5 -35.8 23.5 -35.8
2005-11-27 06:00:00 24.8 -34.0 24.8 -34.0
2005-11-27 12:00:00 26.7 -31.9 26.7 -31.9
2005-11-27 18:00:00 28.3 -29.9 28.3 -29.9
2005-11-28 00:00:00 29.1 -27.5 29.1 -27.5
2005-11-28 06:00:00 29.9 -24.8 29.9 -24.8
2005-11-28 12:00:00 30.2 -21.6 30.2 -21.6
2005-11-28 18:00:00 30.2 -18.2 30.2 -18.2
2005-11-29 00:00:00 30.2 -14.6 30.2 -14.6
2005-11-29 06:00:00 30.7 -10.9 30.7 -10.9
2005-11-29 12:00:00 32.6 -6.6 32.6 -6.6
2005-11-29 18:00:00 35.3 -1.0 35.3 -1.0

top of pageTrack Data:Intensity

hurdat_atl atcf
Date Wind Pres Wind Pres
2005-11-19 12:00:00 25. 1010. 25. 1010.
2005-11-19 18:00:00 25. 1009. 25. 1009.
2005-11-20 00:00:00 25. 1008. 25. 1008.
2005-11-20 06:00:00 25. 1008. 25. 1008.
2005-11-20 12:00:00 30. 1007. 30. 1007.
2005-11-20 18:00:00 35. 1003. 35. 1003.
2005-11-21 00:00:00 35. 1000. 35. 1000.
2005-11-21 06:00:00 35. 998. 35. 998.
2005-11-21 12:00:00 35. 996. 35. 996.
2005-11-21 18:00:00 40. 994. 40. 994.
2005-11-22 00:00:00 40. 992. 40. 992.
2005-11-22 06:00:00 45. 990. 45. 990.
2005-11-22 12:00:00 45. 988. 45. 988.
2005-11-22 18:00:00 45. 986. 45. 986.
2005-11-23 00:00:00 45. 984. 45. 984.
2005-11-23 06:00:00 45. 983. 45. 983.
2005-11-23 12:00:00 50. 983. 50. 983.
2005-11-23 18:00:00 50. 983. 50. 983.
2005-11-24 00:00:00 55. 982. 55. 982.
2005-11-24 06:00:00 55. 981. 55. 981.
2005-11-24 12:00:00 60. 980. 60. 980.
2005-11-24 18:00:00 60. 980. 60. 980.
2005-11-25 00:00:00 60. 980. 60. 980.
2005-11-25 06:00:00 55. 982. 55. 982.
2005-11-25 12:00:00 55. 982. 55. 982.
hurdat_atl atcf
2005-11-25 18:00:00 50. 985. 50. 985.
2005-11-26 00:00:00 45. 989. 45. 989.
2005-11-26 06:00:00 40. 993. 40. 993.
2005-11-26 12:00:00 35. 997. 35. 997.
2005-11-26 18:00:00 35. 997. 35. 997.
2005-11-27 00:00:00 35. 998. 35. 998.
2005-11-27 06:00:00 45. 993. 45. 993.
2005-11-27 12:00:00 60. 982. 60. 982.
2005-11-27 18:00:00 60. 982. 60. 982.
2005-11-28 00:00:00 60. 983. 60. 983.
2005-11-28 06:00:00 60. 984. 60. 984.
2005-11-28 12:00:00 60. 985. 60. 985.
2005-11-28 18:00:00 60. 986. 60. 986.
2005-11-29 00:00:00 55. 988. 55. 988.
2005-11-29 06:00:00 50. 992. 50. 992.
2005-11-29 12:00:00 35. 1000. 35. 1000.
2005-11-29 18:00:00 30. 1003. 30. 1003.

top of page Links to source data

Source Source file Format
hurdat_atl tracks1851to2011.txt:1375:DELTA HURDAT
atcf bal292005.dat ATCF